sensor_id;sensor_type;location;lat;lon;timestamp;P1;durP1;ratioP1;P2;durP2;ratioP2
69629;SDS011;56857;52.212;5.496;2022-10-22T00:01:24;10.38;;;4.70;;
69629;SDS011;56857;52.212;5.496;2022-10-22T00:03:49;10.80;;;4.72;;
69629;SDS011;56857;52.212;5.496;2022-10-22T00:06:14;10.70;;;5.28;;
69629;SDS011;56857;52.212;5.496;2022-10-22T00:08:39;12.55;;;5.15;;
69629;SDS011;56857;52.212;5.496;2022-10-22T00:11:12;11.85;;;5.07;;
69629;SDS011;56857;52.212;5.496;2022-10-22T00:13:39;9.32;;;5.03;;
69629;SDS011;56857;52.212;5.496;2022-10-22T00:16:04;10.85;;;5.53;;
69629;SDS011;56857;52.212;5.496;2022-10-22T00:18:30;9.93;;;5.80;;
69629;SDS011;56857;52.212;5.496;2022-10-22T00:20:55;9.57;;;6.78;;
69629;SDS011;56857;52.212;5.496;2022-10-22T00:23:20;11.70;;;6.07;;
69629;SDS011;56857;52.212;5.496;2022-10-22T00:25:46;10.55;;;5.55;;
69629;SDS011;56857;52.212;5.496;2022-10-22T00:28:12;9.40;;;5.32;;
69629;SDS011;56857;52.212;5.496;2022-10-22T00:30:37;9.70;;;5.20;;
69629;SDS011;56857;52.212;5.496;2022-10-22T00:33:02;11.27;;;5.75;;
69629;SDS011;56857;52.212;5.496;2022-10-22T00:35:28;11.52;;;5.43;;
69629;SDS011;56857;52.212;5.496;2022-10-22T00:37:53;9.70;;;5.45;;
69629;SDS011;56857;52.212;5.496;2022-10-22T00:40:19;12.52;;;5.70;;
69629;SDS011;56857;52.212;5.496;2022-10-22T00:42:44;11.10;;;5.95;;
69629;SDS011;56857;52.212;5.496;2022-10-22T00:50:37;8.43;;;4.78;;
69629;SDS011;56857;52.212;5.496;2022-10-22T00:53:11;10.50;;;5.28;;
69629;SDS011;56857;52.212;5.496;2022-10-22T00:55:40;12.80;;;4.93;;
69629;SDS011;56857;52.212;5.496;2022-10-22T00:58:07;11.40;;;5.60;;
69629;SDS011;56857;52.212;5.496;2022-10-22T01:00:33;9.77;;;4.72;;
69629;SDS011;56857;52.212;5.496;2022-10-22T01:02:59;9.82;;;5.18;;
69629;SDS011;56857;52.212;5.496;2022-10-22T01:05:26;11.57;;;5.30;;
69629;SDS011;56857;52.212;5.496;2022-10-22T01:07:54;11.57;;;5.28;;
69629;SDS011;56857;52.212;5.496;2022-10-22T01:12:50;12.18;;;5.05;;
69629;SDS011;56857;52.212;5.496;2022-10-22T01:18:18;9.43;;;5.03;;
69629;SDS011;56857;52.212;5.496;2022-10-22T01:31:33;10.75;;;4.65;;
69629;SDS011;56857;52.212;5.496;2022-10-22T01:34:03;10.48;;;5.43;;
69629;SDS011;56857;52.212;5.496;2022-10-22T01:36:32;8.70;;;4.57;;
69629;SDS011;56857;52.212;5.496;2022-10-22T01:39:00;10.38;;;5.55;;
69629;SDS011;56857;52.212;5.496;2022-10-22T01:41:27;12.07;;;4.85;;
69629;SDS011;56857;52.212;5.496;2022-10-22T01:43:53;12.95;;;4.93;;
69629;SDS011;56857;52.212;5.496;2022-10-22T01:46:21;13.63;;;4.78;;
69629;SDS011;56857;52.212;5.496;2022-10-22T01:53:59;12.45;;;4.53;;
69629;SDS011;56857;52.212;5.496;2022-10-22T01:56:38;9.85;;;4.85;;
69629;SDS011;56857;52.212;5.496;2022-10-22T02:04:57;8.27;;;4.45;;
69629;SDS011;56857;52.212;5.496;2022-10-22T02:08:04;9.38;;;4.50;;
69629;SDS011;56857;52.212;5.496;2022-10-22T02:10:34;10.75;;;4.78;;
69629;SDS011;56857;52.212;5.496;2022-10-22T02:13:02;9.02;;;4.97;;
69629;SDS011;56857;52.212;5.496;2022-10-22T02:15:29;9.02;;;4.78;;
69629;SDS011;56857;52.212;5.496;2022-10-22T02:17:57;9.10;;;4.35;;
69629;SDS011;56857;52.212;5.496;2022-10-22T02:20:28;9.98;;;4.00;;
69629;SDS011;56857;52.212;5.496;2022-10-22T02:22:57;12.88;;;4.68;;
69629;SDS011;56857;52.212;5.496;2022-10-22T02:25:24;11.10;;;5.80;;
69629;SDS011;56857;52.212;5.496;2022-10-22T02:30:45;12.13;;;4.80;;
69629;SDS011;56857;52.212;5.496;2022-10-22T02:33:17;11.90;;;5.10;;
69629;SDS011;56857;52.212;5.496;2022-10-22T02:35:50;9.90;;;4.60;;
69629;SDS011;56857;52.212;5.496;2022-10-22T02:38:16;11.32;;;5.32;;
69629;SDS011;56857;52.212;5.496;2022-10-22T02:40:43;10.27;;;4.85;;
69629;SDS011;56857;52.212;5.496;2022-10-22T02:43:08;17.25;;;5.30;;
69629;SDS011;56857;52.212;5.496;2022-10-22T02:45:34;10.27;;;4.70;;
69629;SDS011;56857;52.212;5.496;2022-10-22T02:48:00;9.43;;;5.38;;
69629;SDS011;56857;52.212;5.496;2022-10-22T02:50:25;12.98;;;5.03;;
69629;SDS011;56857;52.212;5.496;2022-10-22T02:52:52;9.77;;;4.25;;
69629;SDS011;56857;52.212;5.496;2022-10-22T02:55:17;12.02;;;5.22;;
69629;SDS011;56857;52.212;5.496;2022-10-22T02:57:43;8.75;;;5.32;;
69629;SDS011;56857;52.212;5.496;2022-10-22T03:00:08;11.35;;;4.80;;
69629;SDS011;56857;52.212;5.496;2022-10-22T03:02:35;9.45;;;4.90;;
69629;SDS011;56857;52.212;5.496;2022-10-22T03:05:00;13.55;;;4.82;;
69629;SDS011;56857;52.212;5.496;2022-10-22T03:07:26;9.32;;;4.65;;
69629;SDS011;56857;52.212;5.496;2022-10-22T03:09:51;9.32;;;4.72;;
69629;SDS011;56857;52.212;5.496;2022-10-22T03:12:17;10.90;;;4.85;;
69629;SDS011;56857;52.212;5.496;2022-10-22T03:14:42;9.77;;;4.93;;
69629;SDS011;56857;52.212;5.496;2022-10-22T03:17:07;12.23;;;4.90;;
69629;SDS011;56857;52.212;5.496;2022-10-22T03:19:33;11.57;;;5.05;;
69629;SDS011;56857;52.212;5.496;2022-10-22T03:21:59;12.35;;;4.85;;
69629;SDS011;56857;52.212;5.496;2022-10-22T03:24:30;12.45;;;5.10;;
69629;SDS011;56857;52.212;5.496;2022-10-22T03:27:00;12.20;;;4.82;;
69629;SDS011;56857;52.212;5.496;2022-10-22T03:29:26;10.55;;;4.90;;
69629;SDS011;56857;52.212;5.496;2022-10-22T03:31:52;13.38;;;5.13;;
69629;SDS011;56857;52.212;5.496;2022-10-22T03:34:19;11.73;;;4.93;;
69629;SDS011;56857;52.212;5.496;2022-10-22T03:36:45;8.75;;;4.68;;
69629;SDS011;56857;52.212;5.496;2022-10-22T03:39:11;10.18;;;5.00;;
69629;SDS011;56857;52.212;5.496;2022-10-22T03:41:38;12.43;;;5.38;;
69629;SDS011;56857;52.212;5.496;2022-10-22T03:44:04;10.95;;;4.78;;
69629;SDS011;56857;52.212;5.496;2022-10-22T03:46:30;14.65;;;5.40;;
69629;SDS011;56857;52.212;5.496;2022-10-22T03:48:55;13.40;;;4.90;;
69629;SDS011;56857;52.212;5.496;2022-10-22T03:51:20;11.05;;;5.20;;
69629;SDS011;56857;52.212;5.496;2022-10-22T03:53:46;9.77;;;5.40;;
69629;SDS011;56857;52.212;5.496;2022-10-22T03:56:11;10.68;;;5.18;;
69629;SDS011;56857;52.212;5.496;2022-10-22T03:58:38;12.90;;;5.18;;
69629;SDS011;56857;52.212;5.496;2022-10-22T04:01:08;14.73;;;6.68;;
69629;SDS011;56857;52.212;5.496;2022-10-22T04:03:34;14.18;;;5.63;;
69629;SDS011;56857;52.212;5.496;2022-10-22T04:06:01;12.00;;;4.80;;
69629;SDS011;56857;52.212;5.496;2022-10-22T04:08:28;9.38;;;4.90;;
69629;SDS011;56857;52.212;5.496;2022-10-22T04:10:53;10.68;;;4.90;;
69629;SDS011;56857;52.212;5.496;2022-10-22T04:13:19;10.30;;;5.10;;
69629;SDS011;56857;52.212;5.496;2022-10-22T04:15:44;11.73;;;5.32;;
69629;SDS011;56857;52.212;5.496;2022-10-22T04:18:09;16.33;;;5.03;;
69629;SDS011;56857;52.212;5.496;2022-10-22T04:20:35;11.65;;;4.97;;
69629;SDS011;56857;52.212;5.496;2022-10-22T04:23:00;11.85;;;5.30;;
69629;SDS011;56857;52.212;5.496;2022-10-22T04:25:26;10.73;;;4.80;;
69629;SDS011;56857;52.212;5.496;2022-10-22T04:27:51;13.77;;;5.40;;
69629;SDS011;56857;52.212;5.496;2022-10-22T04:30:16;8.65;;;4.75;;
69629;SDS011;56857;52.212;5.496;2022-10-22T04:32:42;12.27;;;5.07;;
69629;SDS011;56857;52.212;5.496;2022-10-22T04:35:07;11.13;;;4.95;;
69629;SDS011;56857;52.212;5.496;2022-10-22T04:37:32;10.32;;;4.88;;
69629;SDS011;56857;52.212;5.496;2022-10-22T04:39:58;10.95;;;4.97;;
69629;SDS011;56857;52.212;5.496;2022-10-22T04:42:23;11.98;;;5.00;;
69629;SDS011;56857;52.212;5.496;2022-10-22T04:44:49;11.18;;;5.38;;
69629;SDS011;56857;52.212;5.496;2022-10-22T04:47:14;13.57;;;5.53;;
69629;SDS011;56857;52.212;5.496;2022-10-22T04:49:39;9.98;;;5.47;;
69629;SDS011;56857;52.212;5.496;2022-10-22T04:52:06;10.75;;;5.15;;
69629;SDS011;56857;52.212;5.496;2022-10-22T04:54:31;14.32;;;5.32;;
69629;SDS011;56857;52.212;5.496;2022-10-22T04:56:56;12.00;;;5.05;;
69629;SDS011;56857;52.212;5.496;2022-10-22T04:59:22;12.10;;;4.63;;
69629;SDS011;56857;52.212;5.496;2022-10-22T05:01:47;13.15;;;5.57;;
69629;SDS011;56857;52.212;5.496;2022-10-22T05:04:14;18.05;;;5.03;;
69629;SDS011;56857;52.212;5.496;2022-10-22T05:06:41;11.77;;;5.45;;
69629;SDS011;56857;52.212;5.496;2022-10-22T05:09:09;11.68;;;5.47;;
69629;SDS011;56857;52.212;5.496;2022-10-22T05:11:39;11.07;;;5.00;;
69629;SDS011;56857;52.212;5.496;2022-10-22T05:14:06;12.80;;;5.07;;
69629;SDS011;56857;52.212;5.496;2022-10-22T05:16:32;13.57;;;5.18;;
69629;SDS011;56857;52.212;5.496;2022-10-22T05:18:59;11.68;;;4.78;;
69629;SDS011;56857;52.212;5.496;2022-10-22T05:21:26;12.20;;;5.00;;
69629;SDS011;56857;52.212;5.496;2022-10-22T05:23:53;10.98;;;4.63;;
69629;SDS011;56857;52.212;5.496;2022-10-22T05:26:19;13.63;;;4.72;;
69629;SDS011;56857;52.212;5.496;2022-10-22T05:28:47;13.20;;;6.18;;
69629;SDS011;56857;52.212;5.496;2022-10-22T05:31:13;13.43;;;4.80;;
69629;SDS011;56857;52.212;5.496;2022-10-22T05:33:39;13.55;;;4.60;;
69629;SDS011;56857;52.212;5.496;2022-10-22T05:36:06;9.80;;;4.50;;
69629;SDS011;56857;52.212;5.496;2022-10-22T05:38:32;12.10;;;4.55;;
69629;SDS011;56857;52.212;5.496;2022-10-22T05:41:09;15.20;;;5.07;;
69629;SDS011;56857;52.212;5.496;2022-10-22T05:43:38;16.75;;;4.85;;
69629;SDS011;56857;52.212;5.496;2022-10-22T05:46:08;11.68;;;4.72;;
69629;SDS011;56857;52.212;5.496;2022-10-22T05:48:35;11.68;;;4.35;;
69629;SDS011;56857;52.212;5.496;2022-10-22T05:51:02;12.77;;;4.53;;
69629;SDS011;56857;52.212;5.496;2022-10-22T05:53:29;9.73;;;4.47;;
69629;SDS011;56857;52.212;5.496;2022-10-22T05:55:58;10.00;;;4.50;;
69629;SDS011;56857;52.212;5.496;2022-10-22T05:58:24;9.50;;;4.63;;
69629;SDS011;56857;52.212;5.496;2022-10-22T06:00:49;11.75;;;5.03;;
69629;SDS011;56857;52.212;5.496;2022-10-22T06:03:15;10.05;;;4.78;;
69629;SDS011;56857;52.212;5.496;2022-10-22T06:05:40;10.23;;;4.50;;
69629;SDS011;56857;52.212;5.496;2022-10-22T06:08:05;14.18;;;5.28;;
69629;SDS011;56857;52.212;5.496;2022-10-22T06:10:31;11.88;;;4.78;;
69629;SDS011;56857;52.212;5.496;2022-10-22T06:12:56;10.13;;;5.38;;
69629;SDS011;56857;52.212;5.496;2022-10-22T06:15:21;10.90;;;4.47;;
69629;SDS011;56857;52.212;5.496;2022-10-22T06:17:47;13.07;;;4.57;;
69629;SDS011;56857;52.212;5.496;2022-10-22T06:20:12;11.88;;;4.55;;
69629;SDS011;56857;52.212;5.496;2022-10-22T06:22:38;14.35;;;5.15;;
69629;SDS011;56857;52.212;5.496;2022-10-22T06:25:04;12.75;;;5.13;;
69629;SDS011;56857;52.212;5.496;2022-10-22T06:27:30;12.30;;;5.13;;
69629;SDS011;56857;52.212;5.496;2022-10-22T06:29:56;13.18;;;5.07;;
69629;SDS011;56857;52.212;5.496;2022-10-22T06:32:21;12.90;;;4.85;;
69629;SDS011;56857;52.212;5.496;2022-10-22T06:34:47;10.45;;;4.50;;
69629;SDS011;56857;52.212;5.496;2022-10-22T06:37:12;13.13;;;4.57;;
69629;SDS011;56857;52.212;5.496;2022-10-22T06:39:38;12.52;;;4.47;;
69629;SDS011;56857;52.212;5.496;2022-10-22T06:42:03;10.35;;;4.15;;
69629;SDS011;56857;52.212;5.496;2022-10-22T06:44:29;13.57;;;5.32;;
69629;SDS011;56857;52.212;5.496;2022-10-22T06:46:54;10.85;;;4.63;;
69629;SDS011;56857;52.212;5.496;2022-10-22T06:49:19;12.15;;;4.30;;
69629;SDS011;56857;52.212;5.496;2022-10-22T06:51:48;11.93;;;4.53;;
69629;SDS011;56857;52.212;5.496;2022-10-22T06:54:14;13.02;;;4.53;;
69629;SDS011;56857;52.212;5.496;2022-10-22T06:56:39;11.95;;;4.25;;
69629;SDS011;56857;52.212;5.496;2022-10-22T06:59:05;12.88;;;4.38;;
69629;SDS011;56857;52.212;5.496;2022-10-22T07:01:31;12.15;;;4.97;;
69629;SDS011;56857;52.212;5.496;2022-10-22T07:03:58;15.93;;;5.95;;
69629;SDS011;56857;52.212;5.496;2022-10-22T07:06:25;13.57;;;4.40;;
69629;SDS011;56857;52.212;5.496;2022-10-22T07:08:52;14.70;;;4.55;;
69629;SDS011;56857;52.212;5.496;2022-10-22T07:11:20;14.75;;;4.60;;
69629;SDS011;56857;52.212;5.496;2022-10-22T07:13:47;10.02;;;3.97;;
69629;SDS011;56857;52.212;5.496;2022-10-22T07:16:13;9.82;;;4.20;;
69629;SDS011;56857;52.212;5.496;2022-10-22T07:18:40;11.82;;;4.43;;
69629;SDS011;56857;52.212;5.496;2022-10-22T07:21:06;10.02;;;3.88;;
69629;SDS011;56857;52.212;5.496;2022-10-22T07:23:33;11.68;;;4.43;;
69629;SDS011;56857;52.212;5.496;2022-10-22T07:25:59;13.18;;;5.03;;
69629;SDS011;56857;52.212;5.496;2022-10-22T07:28:24;10.90;;;3.80;;
69629;SDS011;56857;52.212;5.496;2022-10-22T07:30:49;13.48;;;3.95;;
69629;SDS011;56857;52.212;5.496;2022-10-22T07:33:15;13.82;;;4.68;;
69629;SDS011;56857;52.212;5.496;2022-10-22T07:35:40;11.52;;;4.28;;
69629;SDS011;56857;52.212;5.496;2022-10-22T07:38:07;16.95;;;4.40;;
69629;SDS011;56857;52.212;5.496;2022-10-22T07:40:33;9.93;;;3.72;;
69629;SDS011;56857;52.212;5.496;2022-10-22T07:43:00;13.70;;;5.60;;
69629;SDS011;56857;52.212;5.496;2022-10-22T07:45:25;9.57;;;3.95;;
69629;SDS011;56857;52.212;5.496;2022-10-22T07:47:51;9.93;;;4.07;;
69629;SDS011;56857;52.212;5.496;2022-10-22T07:50:16;13.10;;;4.40;;
69629;SDS011;56857;52.212;5.496;2022-10-22T07:52:42;12.48;;;4.13;;
69629;SDS011;56857;52.212;5.496;2022-10-22T07:55:07;12.10;;;4.88;;
69629;SDS011;56857;52.212;5.496;2022-10-22T07:57:33;9.50;;;3.72;;
69629;SDS011;56857;52.212;5.496;2022-10-22T07:59:58;11.13;;;3.80;;
69629;SDS011;56857;52.212;5.496;2022-10-22T08:02:24;9.43;;;3.70;;
69629;SDS011;56857;52.212;5.496;2022-10-22T08:04:49;9.68;;;3.47;;
69629;SDS011;56857;52.212;5.496;2022-10-22T08:07:15;11.73;;;3.75;;
69629;SDS011;56857;52.212;5.496;2022-10-22T08:09:40;10.15;;;3.40;;
69629;SDS011;56857;52.212;5.496;2022-10-22T08:12:06;13.35;;;3.88;;
69629;SDS011;56857;52.212;5.496;2022-10-22T08:14:31;10.23;;;3.13;;
69629;SDS011;56857;52.212;5.496;2022-10-22T08:16:57;11.43;;;3.80;;
69629;SDS011;56857;52.212;5.496;2022-10-22T08:19:22;9.93;;;3.42;;
69629;SDS011;56857;52.212;5.496;2022-10-22T08:21:48;8.00;;;2.97;;
69629;SDS011;56857;52.212;5.496;2022-10-22T08:24:13;8.95;;;2.92;;
69629;SDS011;56857;52.212;5.496;2022-10-22T08:26:39;14.55;;;3.42;;
69629;SDS011;56857;52.212;5.496;2022-10-22T08:29:04;10.70;;;3.28;;
69629;SDS011;56857;52.212;5.496;2022-10-22T08:31:30;10.38;;;3.33;;
69629;SDS011;56857;52.212;5.496;2022-10-22T08:33:55;8.85;;;3.22;;
69629;SDS011;56857;52.212;5.496;2022-10-22T08:36:20;13.80;;;3.47;;
69629;SDS011;56857;52.212;5.496;2022-10-22T08:38:46;8.48;;;2.92;;
69629;SDS011;56857;52.212;5.496;2022-10-22T08:41:12;11.02;;;3.03;;
69629;SDS011;56857;52.212;5.496;2022-10-22T08:43:52;12.90;;;3.20;;
69629;SDS011;56857;52.212;5.496;2022-10-22T08:49:42;8.90;;;3.15;;
69629;SDS011;56857;52.212;5.496;2022-10-22T08:52:13;12.60;;;3.45;;
69629;SDS011;56857;52.212;5.496;2022-10-22T08:54:54;14.60;;;3.70;;
69629;SDS011;56857;52.212;5.496;2022-10-22T09:00:13;10.18;;;3.15;;
69629;SDS011;56857;52.212;5.496;2022-10-22T09:07:57;10.73;;;3.13;;
69629;SDS011;56857;52.212;5.496;2022-10-22T09:10:28;13.93;;;3.30;;
69629;SDS011;56857;52.212;5.496;2022-10-22T09:12:57;14.15;;;3.42;;
69629;SDS011;56857;52.212;5.496;2022-10-22T09:15:22;16.55;;;3.40;;
69629;SDS011;56857;52.212;5.496;2022-10-22T09:23:35;11.63;;;2.67;;
69629;SDS011;56857;52.212;5.496;2022-10-22T09:26:14;12.80;;;3.40;;
69629;SDS011;56857;52.212;5.496;2022-10-22T09:28:40;13.48;;;3.03;;
69629;SDS011;56857;52.212;5.496;2022-10-22T09:31:10;13.45;;;2.97;;
69629;SDS011;56857;52.212;5.496;2022-10-22T09:33:37;9.48;;;2.78;;
69629;SDS011;56857;52.212;5.496;2022-10-22T09:36:03;12.25;;;3.15;;
69629;SDS011;56857;52.212;5.496;2022-10-22T09:38:30;14.30;;;4.18;;
69629;SDS011;56857;52.212;5.496;2022-10-22T09:41:03;7.90;;;2.78;;
69629;SDS011;56857;52.212;5.496;2022-10-22T09:43:29;12.65;;;3.20;;
69629;SDS011;56857;52.212;5.496;2022-10-22T09:45:57;8.50;;;3.15;;
69629;SDS011;56857;52.212;5.496;2022-10-22T09:48:28;8.68;;;3.08;;
69629;SDS011;56857;52.212;5.496;2022-10-22T09:53:56;10.65;;;3.00;;
69629;SDS011;56857;52.212;5.496;2022-10-22T09:56:25;10.90;;;3.28;;
69629;SDS011;56857;52.212;5.496;2022-10-22T09:58:56;11.15;;;3.17;;
69629;SDS011;56857;52.212;5.496;2022-10-22T10:01:27;12.23;;;3.40;;
69629;SDS011;56857;52.212;5.496;2022-10-22T10:04:05;11.15;;;3.85;;
69629;SDS011;56857;52.212;5.496;2022-10-22T10:06:33;9.88;;;3.28;;
69629;SDS011;56857;52.212;5.496;2022-10-22T10:08:59;11.57;;;3.50;;
69629;SDS011;56857;52.212;5.496;2022-10-22T10:11:26;8.55;;;3.25;;
69629;SDS011;56857;52.212;5.496;2022-10-22T10:27:36;12.38;;;2.95;;
69629;SDS011;56857;52.212;5.496;2022-10-22T10:30:10;10.38;;;3.22;;
69629;SDS011;56857;52.212;5.496;2022-10-22T10:35:24;8.90;;;2.78;;
69629;SDS011;56857;52.212;5.496;2022-10-22T10:38:10;13.73;;;3.05;;
69629;SDS011;56857;52.212;5.496;2022-10-22T10:40:55;15.32;;;2.70;;
69629;SDS011;56857;52.212;5.496;2022-10-22T10:46:24;10.32;;;2.55;;
69629;SDS011;56857;52.212;5.496;2022-10-22T10:49:00;8.65;;;2.63;;
69629;SDS011;56857;52.212;5.496;2022-10-22T10:51:35;12.23;;;2.88;;
69629;SDS011;56857;52.212;5.496;2022-10-22T10:57:10;13.85;;;2.92;;
69629;SDS011;56857;52.212;5.496;2022-10-22T11:03:03;10.15;;;3.00;;
69629;SDS011;56857;52.212;5.496;2022-10-22T11:05:47;11.55;;;2.47;;
69629;SDS011;56857;52.212;5.496;2022-10-22T11:22:09;8.02;;;2.60;;
69629;SDS011;56857;52.212;5.496;2022-10-22T11:29:53;13.82;;;2.78;;
69629;SDS011;56857;52.212;5.496;2022-10-22T11:32:25;8.70;;;2.40;;
69629;SDS011;56857;52.212;5.496;2022-10-22T11:34:53;9.32;;;3.33;;
69629;SDS011;56857;52.212;5.496;2022-10-22T11:37:22;11.80;;;2.60;;
69629;SDS011;56857;52.212;5.496;2022-10-22T11:39:50;11.18;;;2.63;;
69629;SDS011;56857;52.212;5.496;2022-10-22T11:44:58;14.00;;;3.08;;
69629;SDS011;56857;52.212;5.496;2022-10-22T11:47:41;11.55;;;3.10;;
69629;SDS011;56857;52.212;5.496;2022-10-22T11:55:42;7.68;;;2.40;;
69629;SDS011;56857;52.212;5.496;2022-10-22T11:58:24;8.82;;;2.13;;
69629;SDS011;56857;52.212;5.496;2022-10-22T12:06:15;12.50;;;2.05;;
69629;SDS011;56857;52.212;5.496;2022-10-22T12:16:50;16.17;;;2.42;;
69629;SDS011;56857;52.212;5.496;2022-10-22T12:19:30;8.75;;;1.92;;
69629;SDS011;56857;52.212;5.496;2022-10-22T12:24:36;11.10;;;2.30;;
69629;SDS011;56857;52.212;5.496;2022-10-22T12:27:03;10.20;;;1.88;;
69629;SDS011;56857;52.212;5.496;2022-10-22T12:29:30;13.93;;;2.88;;
69629;SDS011;56857;52.212;5.496;2022-10-22T12:32:00;11.15;;;2.33;;
69629;SDS011;56857;52.212;5.496;2022-10-22T12:34:27;12.15;;;1.98;;
69629;SDS011;56857;52.212;5.496;2022-10-22T12:36:53;11.20;;;2.38;;
69629;SDS011;56857;52.212;5.496;2022-10-22T12:39:20;11.50;;;2.50;;
69629;SDS011;56857;52.212;5.496;2022-10-22T12:41:49;13.18;;;2.22;;
69629;SDS011;56857;52.212;5.496;2022-10-22T12:44:16;9.07;;;2.13;;
69629;SDS011;56857;52.212;5.496;2022-10-22T12:46:43;11.65;;;2.20;;
69629;SDS011;56857;52.212;5.496;2022-10-22T12:49:12;9.70;;;2.22;;
69629;SDS011;56857;52.212;5.496;2022-10-22T12:54:09;11.52;;;2.40;;
69629;SDS011;56857;52.212;5.496;2022-10-22T12:56:42;12.18;;;2.63;;
69629;SDS011;56857;52.212;5.496;2022-10-22T12:59:19;13.10;;;3.22;;
69629;SDS011;56857;52.212;5.496;2022-10-22T13:01:49;10.70;;;2.35;;
69629;SDS011;56857;52.212;5.496;2022-10-22T13:06:56;13.77;;;2.80;;
69629;SDS011;56857;52.212;5.496;2022-10-22T13:12:06;14.98;;;2.03;;
69629;SDS011;56857;52.212;5.496;2022-10-22T13:14:34;12.60;;;2.25;;
69629;SDS011;56857;52.212;5.496;2022-10-22T13:17:09;9.98;;;1.98;;
69629;SDS011;56857;52.212;5.496;2022-10-22T13:24:51;14.75;;;2.83;;
69629;SDS011;56857;52.212;5.496;2022-10-22T13:27:17;11.98;;;4.20;;
69629;SDS011;56857;52.212;5.496;2022-10-22T13:29:43;14.85;;;3.53;;
69629;SDS011;56857;52.212;5.496;2022-10-22T13:32:20;12.73;;;4.75;;
69629;SDS011;56857;52.212;5.496;2022-10-22T13:34:52;19.23;;;5.30;;
69629;SDS011;56857;52.212;5.496;2022-10-22T13:37:20;13.52;;;3.08;;
69629;SDS011;56857;52.212;5.496;2022-10-22T13:39:46;12.88;;;3.78;;
69629;SDS011;56857;52.212;5.496;2022-10-22T13:42:11;17.92;;;2.78;;
69629;SDS011;56857;52.212;5.496;2022-10-22T13:44:37;9.85;;;2.10;;
69629;SDS011;56857;52.212;5.496;2022-10-22T13:47:03;11.60;;;3.50;;
69629;SDS011;56857;52.212;5.496;2022-10-22T13:49:37;18.52;;;4.10;;
69629;SDS011;56857;52.212;5.496;2022-10-22T13:52:03;13.60;;;3.08;;
69629;SDS011;56857;52.212;5.496;2022-10-22T13:54:28;13.85;;;3.08;;
69629;SDS011;56857;52.212;5.496;2022-10-22T13:56:54;11.30;;;2.53;;
69629;SDS011;56857;52.212;5.496;2022-10-22T13:59:19;12.32;;;2.88;;
69629;SDS011;56857;52.212;5.496;2022-10-22T14:01:45;11.35;;;3.15;;
69629;SDS011;56857;52.212;5.496;2022-10-22T14:04:11;17.88;;;3.08;;
69629;SDS011;56857;52.212;5.496;2022-10-22T14:06:38;11.32;;;2.50;;
69629;SDS011;56857;52.212;5.496;2022-10-22T14:09:04;14.35;;;3.28;;
69629;SDS011;56857;52.212;5.496;2022-10-22T14:11:31;14.48;;;3.22;;
69629;SDS011;56857;52.212;5.496;2022-10-22T14:13:56;11.35;;;3.35;;
69629;SDS011;56857;52.212;5.496;2022-10-22T14:16:24;10.43;;;2.90;;
69629;SDS011;56857;52.212;5.496;2022-10-22T14:18:52;11.98;;;2.90;;
69629;SDS011;56857;52.212;5.496;2022-10-22T14:21:18;13.05;;;3.28;;
69629;SDS011;56857;52.212;5.496;2022-10-22T14:23:45;11.27;;;2.60;;
69629;SDS011;56857;52.212;5.496;2022-10-22T14:26:21;10.63;;;2.58;;
69629;SDS011;56857;52.212;5.496;2022-10-22T14:28:52;15.65;;;2.90;;
69629;SDS011;56857;52.212;5.496;2022-10-22T14:31:18;15.30;;;3.10;;
69629;SDS011;56857;52.212;5.496;2022-10-22T14:33:43;14.48;;;2.90;;
69629;SDS011;56857;52.212;5.496;2022-10-22T14:36:13;19.88;;;3.55;;
69629;SDS011;56857;52.212;5.496;2022-10-22T14:38:40;15.48;;;3.40;;
69629;SDS011;56857;52.212;5.496;2022-10-22T14:43:46;13.18;;;3.65;;
69629;SDS011;56857;52.212;5.496;2022-10-22T14:46:14;15.32;;;3.83;;
69629;SDS011;56857;52.212;5.496;2022-10-22T14:48:41;17.10;;;3.70;;
69629;SDS011;56857;52.212;5.496;2022-10-22T14:51:10;16.95;;;3.35;;
69629;SDS011;56857;52.212;5.496;2022-10-22T14:53:41;12.20;;;3.10;;
69629;SDS011;56857;52.212;5.496;2022-10-22T14:56:09;10.93;;;3.03;;
69629;SDS011;56857;52.212;5.496;2022-10-22T14:58:40;13.60;;;3.13;;
69629;SDS011;56857;52.212;5.496;2022-10-22T15:01:06;15.35;;;3.95;;
69629;SDS011;56857;52.212;5.496;2022-10-22T15:03:32;14.52;;;3.53;;
69629;SDS011;56857;52.212;5.496;2022-10-22T15:05:58;19.35;;;3.33;;
69629;SDS011;56857;52.212;5.496;2022-10-22T15:08:23;12.35;;;3.08;;
69629;SDS011;56857;52.212;5.496;2022-10-22T15:10:59;15.43;;;3.60;;
69629;SDS011;56857;52.212;5.496;2022-10-22T15:13:25;21.40;;;4.53;;
69629;SDS011;56857;52.212;5.496;2022-10-22T15:15:52;13.55;;;3.10;;
69629;SDS011;56857;52.212;5.496;2022-10-22T15:18:17;18.38;;;3.08;;
69629;SDS011;56857;52.212;5.496;2022-10-22T15:20:42;12.57;;;3.15;;
69629;SDS011;56857;52.212;5.496;2022-10-22T15:23:08;14.52;;;3.33;;
69629;SDS011;56857;52.212;5.496;2022-10-22T15:25:33;10.20;;;2.80;;
69629;SDS011;56857;52.212;5.496;2022-10-22T15:27:58;8.23;;;2.83;;
69629;SDS011;56857;52.212;5.496;2022-10-22T15:30:24;10.90;;;3.03;;
69629;SDS011;56857;52.212;5.496;2022-10-22T15:32:49;11.07;;;2.78;;
69629;SDS011;56857;52.212;5.496;2022-10-22T15:35:14;12.43;;;3.30;;
69629;SDS011;56857;52.212;5.496;2022-10-22T15:37:40;10.90;;;2.80;;
69629;SDS011;56857;52.212;5.496;2022-10-22T15:40:05;15.02;;;2.95;;
69629;SDS011;56857;52.212;5.496;2022-10-22T15:42:32;9.95;;;3.03;;
69629;SDS011;56857;52.212;5.496;2022-10-22T15:44:58;15.63;;;2.83;;
69629;SDS011;56857;52.212;5.496;2022-10-22T15:47:23;17.55;;;3.47;;
69629;SDS011;56857;52.212;5.496;2022-10-22T15:49:49;12.07;;;2.90;;
69629;SDS011;56857;52.212;5.496;2022-10-22T15:52:14;12.85;;;3.22;;
69629;SDS011;56857;52.212;5.496;2022-10-22T15:54:40;15.40;;;2.92;;
69629;SDS011;56857;52.212;5.496;2022-10-22T15:57:05;8.40;;;3.17;;
69629;SDS011;56857;52.212;5.496;2022-10-22T15:59:30;10.77;;;2.80;;
69629;SDS011;56857;52.212;5.496;2022-10-22T16:01:55;15.48;;;3.53;;
69629;SDS011;56857;52.212;5.496;2022-10-22T16:04:21;15.73;;;3.25;;
69629;SDS011;56857;52.212;5.496;2022-10-22T16:06:48;13.75;;;2.97;;
69629;SDS011;56857;52.212;5.496;2022-10-22T16:09:17;11.43;;;2.92;;
69629;SDS011;56857;52.212;5.496;2022-10-22T16:11:44;7.88;;;2.35;;
69629;SDS011;56857;52.212;5.496;2022-10-22T16:14:10;12.73;;;3.53;;
69629;SDS011;56857;52.212;5.496;2022-10-22T16:16:41;11.65;;;2.97;;
69629;SDS011;56857;52.212;5.496;2022-10-22T16:19:08;9.13;;;2.78;;
69629;SDS011;56857;52.212;5.496;2022-10-22T16:21:37;16.00;;;3.38;;
69629;SDS011;56857;52.212;5.496;2022-10-22T16:24:04;12.93;;;4.85;;
69629;SDS011;56857;52.212;5.496;2022-10-22T16:26:30;18.27;;;4.85;;
69629;SDS011;56857;52.212;5.496;2022-10-22T16:28:56;16.08;;;3.92;;
69629;SDS011;56857;52.212;5.496;2022-10-22T16:31:22;12.82;;;4.57;;
69629;SDS011;56857;52.212;5.496;2022-10-22T16:33:47;12.50;;;3.88;;
69629;SDS011;56857;52.212;5.496;2022-10-22T16:36:13;14.05;;;5.07;;
69629;SDS011;56857;52.212;5.496;2022-10-22T16:38:41;18.42;;;6.55;;
69629;SDS011;56857;52.212;5.496;2022-10-22T16:41:07;18.17;;;5.95;;
69629;SDS011;56857;52.212;5.496;2022-10-22T16:43:40;14.02;;;5.38;;
69629;SDS011;56857;52.212;5.496;2022-10-22T16:46:07;13.75;;;5.22;;
69629;SDS011;56857;52.212;5.496;2022-10-22T16:48:33;11.98;;;4.90;;
69629;SDS011;56857;52.212;5.496;2022-10-22T16:51:03;13.18;;;4.57;;
69629;SDS011;56857;52.212;5.496;2022-10-22T16:53:30;16.60;;;5.22;;
69629;SDS011;56857;52.212;5.496;2022-10-22T16:55:59;16.00;;;4.95;;
69629;SDS011;56857;52.212;5.496;2022-10-22T16:58:24;13.23;;;4.53;;
69629;SDS011;56857;52.212;5.496;2022-10-22T17:00:50;17.65;;;5.20;;